Terminal Aerodrome Forecast
Issued by NWS

Home | Current Version | Previous Version | Text Only | Print | Product List | Glossary On
Versions: 1 2 3 4 5 6 7 8 9 10 11 12 13 14 15 16 17 18 19 20 21 22 23 24 25 26 27 28 29
000
FTUS41 KOKX 221100
TAFTEB
TAF
KTEB 221132Z 2212/2312 29010G16KT P6SM SCT040 SCT150
     FM221400 30014G24KT P6SM SCT035
     FM230000 33007KT P6SM FEW040
     FM230700 34004KT P6SM SKC=

USA.gov is the U.S. government's official web portal to all federal, state and local government web resources and services.